Time;durP1;ratioP1;P1;durP2;ratioP2;P2;SDS_P1;SDS_P2;PMS_P1;PMS_P2;Temp;Humidity;BMP_temperature;BMP_pressure;BME280_temperature;BME280_humidity;BME280_pressure;Samples;Min_cycle;Max_cycle;Signal;HPM_P1;HPM_P2
2022/07/05 00:01:55;;;;;;;7.43;5.05;;;12.60;99.90;;;;;;5124665;27;20049;-72
2022/07/05 00:04:21;;;;;;;7.55;5.32;;;12.60;99.90;;;;;;5091349;27;20051;-71
2022/07/05 00:09:30;;;;;;;6.45;5.30;;;12.60;99.90;;;;;;5129663;27;20552;-65
2022/07/05 00:11:56;;;;;;;6.55;4.63;;;12.60;99.90;;;;;;5084805;27;20039;-66
2022/07/05 00:14:22;;;;;;;8.45;4.72;;;12.60;99.90;;;;;;5116472;27;20105;-65
2022/07/05 00:16:49;;;;;;;7.30;4.70;;;12.80;99.90;;;;;;5125075;27;20461;-66
2022/07/05 00:19:15;;;;;;;8.18;5.28;;;12.50;99.90;;;;;;5127827;27;20374;-66
2022/07/05 00:21:40;;;;;;;7.10;4.57;;;12.50;99.90;;;;;;5134737;27;20065;-68
2022/07/05 00:24:06;;;;;;;9.48;4.72;;;12.40;99.90;;;;;;5128447;27;20043;-66
2022/07/05 00:26:32;;;;;;;6.80;5.00;;;12.40;99.90;;;;;;5134820;27;20065;-66
2022/07/05 00:28:58;;;;;;;7.80;4.63;;;12.40;99.90;;;;;;5117432;27;20137;-66
2022/07/05 00:31:23;;;;;;;5.65;4.68;;;12.40;99.90;;;;;;5133652;27;20043;-68
2022/07/05 00:33:49;;;;;;;7.55;4.85;;;12.40;99.90;;;;;;5096945;27;20115;-66
2022/07/05 00:36:15;;;;;;;4.38;3.97;;;12.20;99.90;;;;;;5134816;27;20045;-66
2022/07/05 00:38:41;;;;;;;6.63;5.00;;;12.10;99.90;;;;;;5116037;27;20046;-69
2022/07/05 00:41:06;;;;;;;6.30;5.20;;;12.00;99.90;;;;;;5131532;27;20039;-66
2022/07/05 00:43:32;;;;;;;6.90;5.13;;;12.00;99.90;;;;;;5100192;27;20051;-66
2022/07/05 00:45:58;;;;;;;8.48;5.43;;;12.00;99.90;;;;;;5119919;27;20053;-67
2022/07/05 00:48:23;;;;;;;5.13;4.47;;;12.00;99.90;;;;;;5134538;27;20091;-66
2022/07/05 00:50:50;;;;;;;7.93;5.05;;;12.00;99.90;;;;;;5132235;27;20050;-66
2022/07/05 00:53:16;;;;;;;7.15;5.22;;;11.90;99.90;;;;;;5107000;27;20043;-69
2022/07/05 00:55:44;;;;;;;5.90;4.70;;;11.90;99.90;;;;;;5093940;27;20035;-66
2022/07/05 00:58:11;;;;;;;5.85;4.90;;;11.90;99.90;;;;;;5107543;27;20027;-68
2022/07/05 01:00:37;;;;;;;6.18;5.03;;;11.90;99.90;;;;;;5091403;27;20374;-66
2022/07/05 01:03:04;;;;;;;6.78;4.78;;;11.80;99.90;;;;;;5107324;27;20104;-68
2022/07/05 01:05:31;;;;;;;5.40;3.72;;;11.80;99.90;;;;;;5114558;27;20038;-68
2022/07/05 01:08:00;;;;;;;5.57;4.82;;;11.80;99.90;;;;;;5131330;27;20047;-66
2022/07/05 01:10:27;;;;;;;5.22;3.75;;;11.70;99.90;;;;;;5130443;27;20078;-67
2022/07/05 01:12:53;;;;;;;7.40;4.88;;;11.80;99.90;;;;;;5129092;27;20057;-66
2022/07/05 01:15:21;;;;;;;4.40;3.88;;;11.70;99.90;;;;;;5131306;27;20347;-66
2022/07/05 01:17:47;;;;;;;6.38;4.50;;;11.60;99.90;;;;;;5115321;27;20108;-66
2022/07/05 01:20:14;;;;;;;7.45;5.25;;;11.60;99.90;;;;;;5130058;27;20478;-67
2022/07/05 01:22:56;;;;;;;8.57;5.57;;;11.60;99.90;;;;;;5129457;27;20047;-68
2022/07/05 01:25:25;;;;;;;9.27;5.97;;;11.60;99.90;;;;;;5113970;27;20085;-66
2022/07/05 01:27:51;;;;;;;12.50;6.57;;;11.60;99.90;;;;;;5131056;27;20038;-66
2022/07/05 01:30:18;;;;;;;8.45;5.93;;;11.70;99.90;;;;;;5129819;27;20125;-68
2022/07/05 01:32:44;;;;;;;8.43;5.65;;;11.70;99.90;;;;;;5133054;27;20387;-66
2022/07/05 01:35:11;;;;;;;9.23;5.60;;;11.60;99.90;;;;;;5128633;27;20038;-66
2022/07/05 01:37:38;;;;;;;10.77;5.60;;;11.60;99.90;;;;;;5115511;27;20080;-67
2022/07/05 01:40:04;;;;;;;6.88;5.28;;;11.50;99.90;;;;;;5135721;27;20047;-66
2022/07/05 01:42:30;;;;;;;7.85;6.28;;;11.40;99.90;;;;;;5130127;27;20045;-66
2022/07/05 01:44:56;;;;;;;8.70;6.35;;;11.30;99.90;;;;;;5093264;27;20043;-66
2022/07/05 01:47:23;;;;;;;10.63;6.55;;;11.30;99.90;;;;;;5130241;27;20079;-66
2022/07/05 01:49:54;;;;;;;9.27;6.60;;;11.30;99.90;;;;;;5130345;27;20035;-66
2022/07/05 01:52:22;;;;;;;9.32;5.95;;;11.40;99.90;;;;;;5112427;27;20043;-66
2022/07/05 01:54:48;;;;;;;9.27;6.40;;;11.30;99.90;;;;;;5127890;27;20580;-66
2022/07/05 01:57:14;;;;;;;9.15;5.82;;;11.40;99.90;;;;;;5128101;27;20615;-67
2022/07/05 01:59:40;;;;;;;12.18;5.78;;;11.30;99.90;;;;;;5127622;27;20081;-66
2022/07/05 02:02:07;;;;;;;11.00;5.97;;;11.30;99.90;;;;;;5113071;27;20035;-69
2022/07/05 02:04:34;;;;;;;9.07;5.72;;;11.50;99.90;;;;;;5131041;27;20050;-66
2022/07/05 02:07:04;;;;;;;10.90;5.97;;;11.10;99.90;;;;;;5112784;27;20071;-66
2022/07/05 02:09:30;;;;;;;12.18;6.60;;;11.00;99.90;;;;;;5113208;27;20038;-66
2022/07/05 02:11:56;;;;;;;11.82;7.00;;;11.00;99.90;;;;;;5127875;27;20041;-65
2022/07/05 02:14:21;;;;;;;10.75;6.80;;;11.10;99.90;;;;;;5130316;27;20689;-66
2022/07/05 02:16:47;;;;;;;12.30;7.38;;;11.10;99.90;;;;;;5129555;27;20073;-66
2022/07/05 02:19:13;;;;;;;9.02;7.00;;;11.20;99.90;;;;;;5126265;27;20039;-67
2022/07/05 02:21:39;;;;;;;9.35;6.25;;;11.30;99.90;;;;;;5104095;27;20134;-69
2022/07/05 02:24:06;;;;;;;9.35;6.80;;;11.20;99.90;;;;;;5124317;27;20502;-67
2022/07/05 02:26:32;;;;;;;11.82;5.78;;;11.20;99.90;;;;;;5110195;27;20558;-66
2022/07/05 02:28:58;;;;;;;9.45;6.82;;;11.10;99.90;;;;;;5107782;27;20128;-67
2022/07/05 02:31:24;;;;;;;11.98;7.15;;;11.10;99.90;;;;;;5124997;27;20049;-66
2022/07/05 02:33:50;;;;;;;12.98;6.25;;;11.10;99.90;;;;;;5103003;27;20050;-67
2022/07/05 02:36:15;;;;;;;10.88;7.07;;;11.10;99.90;;;;;;5123847;27;20040;-69
2022/07/05 02:38:41;;;;;;;9.27;6.60;;;11.10;99.90;;;;;;5108942;27;20123;-68
2022/07/05 02:41:08;;;;;;;8.52;6.00;;;11.10;99.90;;;;;;5126269;27;20051;-66
2022/07/05 02:43:34;;;;;;;11.27;6.70;;;11.10;99.90;;;;;;5118673;27;20035;-66
2022/07/05 02:46:00;;;;;;;8.02;6.53;;;11.10;99.90;;;;;;5092659;27;20138;-67
2022/07/05 02:48:26;;;;;;;8.60;6.70;;;11.10;99.90;;;;;;5109132;27;20796;-66
2022/07/05 02:50:52;;;;;;;8.10;6.18;;;11.20;99.90;;;;;;5126551;27;20051;-67
2022/07/05 02:53:17;;;;;;;8.48;6.35;;;11.20;99.90;;;;;;5121461;27;20043;-69
2022/07/05 02:55:43;;;;;;;9.25;5.25;;;11.20;99.90;;;;;;5121048;27;22268;-67
2022/07/05 02:58:09;;;;;;;8.27;5.40;;;11.00;99.90;;;;;;5091897;27;20126;-67
2022/07/05 03:00:35;;;;;;;7.65;5.60;;;10.90;99.90;;;;;;5124468;27;20078;-68
2022/07/05 03:03:01;;;;;;;9.82;6.10;;;10.90;99.90;;;;;;5106562;27;20489;-67
2022/07/05 03:05:27;;;;;;;8.63;5.95;;;10.90;99.90;;;;;;5124275;27;20054;-69
2022/07/05 03:07:53;;;;;;;10.18;6.90;;;10.90;99.90;;;;;;5109745;27;20090;-67
2022/07/05 03:10:19;;;;;;;9.00;6.63;;;10.90;99.90;;;;;;5123978;27;20847;-68
2022/07/05 03:12:44;;;;;;;10.60;7.10;;;10.90;99.90;;;;;;5124413;27;20051;-67
2022/07/05 03:15:10;;;;;;;11.75;7.18;;;10.90;99.90;;;;;;5111729;27;20054;-69
2022/07/05 03:17:36;;;;;;;11.63;7.15;;;10.80;99.90;;;;;;5132399;27;20095;-69
2022/07/05 03:20:02;;;;;;;9.98;6.63;;;10.80;99.90;;;;;;5095585;27;20097;-68
2022/07/05 03:22:28;;;;;;;9.77;6.60;;;10.80;99.90;;;;;;5101738;27;20043;-69
2022/07/05 03:24:54;;;;;;;8.30;6.75;;;10.80;99.90;;;;;;5122619;27;20184;-68
2022/07/05 03:27:19;;;;;;;9.85;6.32;;;11.00;99.90;;;;;;5110120;27;20535;-67
2022/07/05 03:29:45;;;;;;;10.95;6.50;;;10.80;99.90;;;;;;5114980;27;20096;-67
2022/07/05 03:32:11;;;;;;;13.02;7.10;;;10.70;99.90;;;;;;5127854;27;20058;-68
2022/07/05 03:34:38;;;;;;;11.30;7.43;;;10.70;99.90;;;;;;5126371;27;20371;-67
2022/07/05 03:37:04;;;;;;;10.25;7.00;;;10.70;99.90;;;;;;5088525;28;20043;-67
2022/07/05 03:39:29;;;;;;;13.10;7.22;;;10.60;99.90;;;;;;5113107;27;20043;-67
2022/07/05 03:41:55;;;;;;;14.25;7.28;;;10.70;99.90;;;;;;5114090;27;20482;-67
2022/07/05 03:44:21;;;;;;;12.75;8.00;;;10.80;99.90;;;;;;5098369;27;20092;-70
2022/07/05 03:46:47;;;;;;;13.52;8.27;;;10.80;99.90;;;;;;5132094;27;20111;-67
2022/07/05 03:49:12;;;;;;;12.85;7.40;;;10.90;99.90;;;;;;5105888;27;20171;-67
2022/07/05 03:51:38;;;;;;;11.80;7.85;;;10.90;99.90;;;;;;5114379;27;20046;-69
2022/07/05 03:54:04;;;;;;;12.52;7.55;;;10.90;99.90;;;;;;5114454;27;20066;-68
2022/07/05 03:56:29;;;;;;;12.73;7.20;;;10.90;99.90;;;;;;5091055;27;20048;-68
2022/07/05 03:58:56;;;;;;;10.70;6.90;;;10.90;99.90;;;;;;5113636;27;20065;-67
2022/07/05 04:01:22;;;;;;;9.27;7.30;;;11.00;99.90;;;;;;5112948;27;20506;-67
2022/07/05 04:03:47;;;;;;;8.90;7.30;;;11.00;99.90;;;;;;5126534;27;20043;-66
2022/07/05 04:06:13;;;;;;;9.73;7.35;;;11.00;99.90;;;;;;5128078;27;20543;-67
2022/07/05 04:08:39;;;;;;;11.30;8.00;;;11.00;99.90;;;;;;5114680;27;20046;-67
2022/07/05 04:11:05;;;;;;;12.00;7.72;;;11.00;99.90;;;;;;5131630;27;20126;-67
2022/07/05 04:13:31;;;;;;;12.05;8.25;;;11.00;99.90;;;;;;5130938;27;20055;-67
2022/07/05 04:15:57;;;;;;;13.38;7.90;;;11.10;99.90;;;;;;5127695;27;20391;-68
2022/07/05 04:18:23;;;;;;;16.13;8.20;;;11.20;99.90;;;;;;5109734;27;20038;-66
2022/07/05 04:20:48;;;;;;;11.52;8.40;;;11.20;99.90;;;;;;5130970;27;20070;-67
2022/07/05 04:23:14;;;;;;;12.57;8.05;;;11.40;99.90;;;;;;5117784;27;20478;-67
2022/07/05 04:25:40;;;;;;;11.60;8.15;;;11.30;99.90;;;;;;5115344;27;20037;-67
2022/07/05 04:28:06;;;;;;;14.38;8.25;;;11.40;99.90;;;;;;5116201;27;20034;-67
2022/07/05 04:30:32;;;;;;;13.57;8.55;;;11.50;99.90;;;;;;5117239;27;20045;-67
2022/07/05 04:32:57;;;;;;;11.60;8.13;;;11.50;99.90;;;;;;5117864;27;20062;-68
2022/07/05 04:35:23;;;;;;;15.23;9.13;;;11.60;99.90;;;;;;5113399;27;20047;-67
2022/07/05 04:37:49;;;;;;;15.27;9.32;;;11.70;99.90;;;;;;5131024;27;20428;-67
2022/07/05 04:40:15;;;;;;;16.75;10.00;;;11.70;99.90;;;;;;5133204;27;20042;-66
2022/07/05 04:42:42;;;;;;;14.30;9.52;;;11.80;99.90;;;;;;5134953;27;20142;-69
2022/07/05 04:45:08;;;;;;;15.40;10.13;;;11.90;99.90;;;;;;5116738;27;20051;-67
2022/07/05 04:47:34;;;;;;;19.48;11.27;;;12.00;99.90;;;;;;5131433;27;20050;-67
2022/07/05 04:50:00;;;;;;;17.60;11.07;;;12.00;99.90;;;;;;5112373;27;20050;-67
2022/07/05 04:52:26;;;;;;;15.75;10.75;;;12.10;99.90;;;;;;5101895;27;20059;-67
2022/07/05 04:54:53;;;;;;;16.75;11.18;;;12.20;99.90;;;;;;5114345;27;20054;-70
2022/07/05 04:57:18;;;;;;;17.50;11.10;;;12.30;99.90;;;;;;5087071;27;20047;-67
2022/07/05 04:59:44;;;;;;;17.17;11.18;;;12.40;99.90;;;;;;5106192;27;20035;-68
2022/07/05 05:02:10;;;;;;;18.98;10.75;;;12.50;99.90;;;;;;5114423;27;20034;-67
2022/07/05 05:04:36;;;;;;;19.20;11.15;;;12.60;99.90;;;;;;5098403;27;20098;-67
2022/07/05 05:07:02;;;;;;;17.17;10.65;;;12.80;99.90;;;;;;5110000;27;20043;-67
2022/07/05 05:09:27;;;;;;;20.08;11.23;;;12.80;99.90;;;;;;5101922;27;20530;-69
2022/07/05 05:11:53;;;;;;;19.52;11.38;;;12.90;99.90;;;;;;5116343;27;20091;-69
2022/07/05 05:14:19;;;;;;;19.67;11.35;;;13.00;99.90;;;;;;5134117;27;20030;-69
2022/07/05 05:16:44;;;;;;;20.67;11.60;;;13.10;99.90;;;;;;5114903;27;20123;-68
2022/07/05 05:19:10;;;;;;;16.75;10.73;;;13.20;99.90;;;;;;5117110;27;20042;-68
2022/07/05 05:21:36;;;;;;;16.50;10.93;;;13.30;99.90;;;;;;5114402;27;20054;-68
2022/07/05 05:24:02;;;;;;;16.23;11.68;;;13.40;99.90;;;;;;5133605;27;20420;-68
2022/07/05 05:26:27;;;;;;;18.58;11.25;;;13.60;99.90;;;;;;5125517;27;20053;-69
2022/07/05 05:28:53;;;;;;;14.52;10.55;;;13.60;99.90;;;;;;5129194;27;20038;-68
2022/07/05 05:31:20;;;;;;;13.80;9.90;;;13.80;99.90;;;;;;5133206;27;20054;-67
2022/07/05 05:33:45;;;;;;;15.63;9.18;;;13.90;99.90;;;;;;5132940;27;20042;-68
2022/07/05 05:36:11;;;;;;;14.30;9.65;;;14.00;99.90;;;;;;5101767;27;20031;-70
2022/07/05 05:38:37;;;;;;;14.13;9.90;;;14.20;99.90;;;;;;5102209;27;20098;-68
2022/07/05 05:41:03;;;;;;;12.68;9.38;;;14.30;99.90;;;;;;5129575;27;20367;-68
2022/07/05 05:43:29;;;;;;;12.15;8.93;;;14.50;99.90;;;;;;5117214;27;20035;-67
2022/07/05 05:45:54;;;;;;;13.07;7.72;;;14.60;99.90;;;;;;5131071;27;20045;-68
2022/07/05 05:48:21;;;;;;;9.93;6.97;;;14.80;99.90;;;;;;5125699;27;20046;-66
2022/07/05 05:50:47;;;;;;;10.30;6.65;;;15.00;99.90;;;;;;5135997;27;20034;-71
2022/07/05 05:53:13;;;;;;;9.23;6.85;;;15.20;99.90;;;;;;5137487;27;20121;-65
2022/07/05 05:55:40;;;;;;;12.10;6.75;;;15.30;99.90;;;;;;5135668;27;20042;-67
2022/07/05 05:58:26;;;;;;;9.00;6.95;;;15.40;99.90;;;;;;5137920;27;20065;-66
2022/07/05 06:00:52;;;;;;;8.40;5.68;;;15.60;99.90;;;;;;5136248;27;20042;-67
2022/07/05 06:03:23;;;;;;;5.75;4.95;;;15.80;99.90;;;;;;5117187;27;20170;-68
2022/07/05 06:05:49;;;;;;;5.57;4.65;;;15.90;99.90;;;;;;5115495;27;20049;-65
2022/07/05 06:08:15;;;;;;;5.25;3.53;;;16.10;99.90;;;;;;5155565;27;20047;-68
2022/07/05 06:10:41;;;;;;;6.63;3.75;;;16.20;99.90;;;;;;5152748;27;20034;-69
2022/07/05 06:13:10;;;;;;;7.20;3.38;;;16.30;99.90;;;;;;5122777;27;20038;-66
2022/07/05 06:15:37;;;;;;;8.20;3.70;;;16.40;99.90;;;;;;5117432;27;20130;-67
2022/07/05 06:18:03;;;;;;;5.88;3.03;;;16.50;99.90;;;;;;5116473;27;20154;-68
2022/07/05 06:20:31;;;;;;;5.00;3.35;;;16.50;99.90;;;;;;5122190;27;20037;-68
2022/07/05 06:22:57;;;;;;;5.35;3.45;;;16.60;99.90;;;;;;5131059;27;20113;-68
2022/07/05 06:25:24;;;;;;;5.40;3.50;;;16.70;99.90;;;;;;5137520;27;20045;-68
2022/07/05 06:27:52;;;;;;;4.55;3.40;;;16.80;99.90;;;;;;5135863;27;20494;-67
2022/07/05 06:30:20;;;;;;;4.35;3.13;;;16.90;99.90;;;;;;5137014;27;20043;-68
2022/07/05 06:32:47;;;;;;;4.97;2.97;;;17.00;99.90;;;;;;5122767;27;20038;-68
2022/07/05 06:35:14;;;;;;;5.63;2.90;;;17.00;99.90;;;;;;5116582;27;20047;-72
2022/07/05 06:37:58;;;;;;;5.70;2.60;;;17.00;99.90;;;;;;5115496;27;20982;-70
2022/07/05 06:40:26;;;;;;;5.30;2.78;;;17.10;99.90;;;;;;5112300;27;20085;-67
2022/07/05 06:42:54;;;;;;;3.25;2.35;;;17.00;99.90;;;;;;5135903;27;20565;-67
2022/07/05 06:45:19;;;;;;;3.78;2.03;;;17.10;99.90;;;;;;5137141;27;20088;-67
2022/07/05 06:47:53;;;;;;;3.55;2.50;;;17.20;99.90;;;;;;5124350;27;20047;-67
2022/07/05 06:50:18;;;;;;;2.75;2.00;;;17.30;99.90;;;;;;5120116;27;20110;-69
2022/07/05 06:52:44;;;;;;;4.50;2.10;;;17.30;99.90;;;;;;5112113;27;20118;-67
2022/07/05 06:55:10;;;;;;;3.42;1.80;;;17.40;99.90;;;;;;5132727;27;20092;-69
2022/07/05 06:57:35;;;;;;;3.05;1.70;;;17.50;99.90;;;;;;5131931;27;20056;-69
2022/07/05 07:00:02;;;;;;;5.03;1.85;;;17.70;99.90;;;;;;5127761;27;20051;-68
2022/07/05 07:02:28;;;;;;;3.10;2.00;;;17.90;99.90;;;;;;5134561;27;20612;-71
2022/07/05 07:04:53;;;;;;;4.38;1.80;;;18.00;99.90;;;;;;5118173;27;20054;-68
2022/07/05 07:10:03;;;;;;;5.30;1.80;;;18.00;99.90;;;;;;5102328;27;20047;-69
2022/07/05 07:12:29;;;;;;;3.03;1.50;;;18.10;99.90;;;;;;5111666;27;20042;-69
2022/07/05 07:14:56;;;;;;;4.13;1.60;;;18.10;99.90;;;;;;5115929;27;20039;-67
2022/07/05 07:17:22;;;;;;;3.70;1.50;;;18.20;99.90;;;;;;5099306;27;20050;-67
2022/07/05 07:19:48;;;;;;;2.65;0.98;;;18.40;99.90;;;;;;5102257;27;20038;-68
2022/07/05 07:22:14;;;;;;;7.40;1.20;;;18.40;99.90;;;;;;5124859;27;20555;-69
2022/07/05 07:24:40;;;;;;;4.47;1.00;;;18.40;99.90;;;;;;5124909;27;20053;-68
2022/07/05 07:27:07;;;;;;;2.70;1.15;;;18.50;99.90;;;;;;5125282;27;20031;-68
2022/07/05 07:29:38;;;;;;;3.20;1.10;;;18.50;99.90;;;;;;5124351;27;20126;-67
2022/07/05 07:32:06;;;;;;;1.50;1.17;;;18.50;99.90;;;;;;5126112;27;20122;-67
2022/07/05 07:34:33;;;;;;;2.22;1.30;;;18.60;99.90;;;;;;5107690;27;20092;-67
2022/07/05 07:36:59;;;;;;;4.25;1.20;;;18.70;99.90;;;;;;5123760;27;20095;-69
2022/07/05 07:39:26;;;;;;;4.80;1.15;;;18.60;99.90;;;;;;5123734;27;20038;-71
2022/07/05 07:41:52;;;;;;;2.80;1.08;;;18.80;99.90;;;;;;5095743;28;20130;-73
2022/07/05 07:44:18;;;;;;;3.10;0.90;;;18.90;99.90;;;;;;5112419;28;20507;-71
2022/07/05 07:46:44;;;;;;;4.32;1.05;;;18.90;99.90;;;;;;5112192;27;20387;-72
2022/07/05 07:49:10;;;;;;;0.93;0.80;;;19.10;99.90;;;;;;5114733;27;20113;-73
2022/07/05 07:51:37;;;;;;;3.88;0.80;;;19.30;99.90;;;;;;5086893;27;21120;-70
2022/07/05 07:54:03;;;;;;;1.45;0.82;;;19.30;99.90;;;;;;5100001;27;20383;-74
2022/07/05 07:56:29;;;;;;;2.78;0.90;;;19.20;99.90;;;;;;5101003;27;20048;-72
2022/07/05 07:58:54;;;;;;;2.17;0.82;;;19.20;99.90;;;;;;5116252;27;20065;-68
2022/07/05 08:01:20;;;;;;;3.38;1.60;;;19.20;99.90;;;;;;5119368;27;20042;-68
2022/07/05 08:03:46;;;;;;;2.03;0.85;;;19.40;99.90;;;;;;5108303;27;20051;-68
2022/07/05 08:06:13;;;;;;;3.17;0.93;;;19.40;99.90;;;;;;5105826;27;20035;-68
2022/07/05 08:08:41;;;;;;;3.75;0.80;;;19.30;99.90;;;;;;5114571;27;20090;-70
2022/07/05 08:11:09;;;;;;;3.72;0.90;;;19.40;99.90;;;;;;5105554;27;20043;-68
2022/07/05 08:13:36;;;;;;;3.50;1.20;;;19.70;99.90;;;;;;5129102;27;20471;-70
2022/07/05 08:16:02;;;;;;;2.95;1.13;;;19.80;99.90;;;;;;5124493;27;20049;-69
2022/07/05 08:21:32;;;;;;;3.72;0.85;;;20.20;99.90;;;;;;5107604;27;20066;-68
2022/07/05 08:23:59;;;;;;;1.95;0.88;;;20.40;99.90;;;;;;5117924;27;20062;-68
2022/07/05 08:26:26;;;;;;;2.25;1.00;;;20.20;99.90;;;;;;5098953;27;20121;-70
2022/07/05 08:28:52;;;;;;;2.40;0.90;;;20.30;99.90;;;;;;5122784;27;20036;-69
2022/07/05 08:31:18;;;;;;;4.05;0.95;;;20.10;99.90;;;;;;5123097;27;20096;-67
2022/07/05 08:33:43;;;;;;;3.80;1.02;;;19.90;99.90;;;;;;5110878;28;20467;-68
2022/07/05 08:36:09;;;;;;;4.53;1.20;;;19.90;99.90;;;;;;5112547;27;20038;-68
2022/07/05 08:38:35;;;;;;;2.67;1.30;;;20.00;99.90;;;;;;5082954;27;20046;-70
2022/07/05 08:41:02;;;;;;;2.72;1.08;;;20.00;99.90;;;;;;5101897;28;20481;-68
2022/07/05 08:43:29;;;;;;;2.97;1.00;;;19.90;99.90;;;;;;5113395;27;20035;-71
2022/07/05 08:45:56;;;;;;;3.72;1.10;;;19.80;99.90;;;;;;5083898;28;20051;-71
2022/07/05 08:48:24;;;;;;;3.53;1.08;;;19.70;99.90;;;;;;5120125;27;20036;-68
2022/07/05 08:50:51;;;;;;;4.20;1.30;;;19.70;99.90;;;;;;5110662;28;20472;-68
2022/07/05 08:53:21;;;;;;;2.00;0.90;;;19.60;99.90;;;;;;5113494;28;20047;-68
2022/07/05 08:55:47;;;;;;;7.18;1.30;;;19.60;99.90;;;;;;5111075;28;20039;-68
2022/07/05 08:58:13;;;;;;;7.38;1.20;;;19.60;99.90;;;;;;5110337;28;20403;-68
2022/07/05 09:00:39;;;;;;;3.85;0.90;;;19.70;99.90;;;;;;5111032;28;20040;-67
2022/07/05 09:03:06;;;;;;;1.58;0.80;;;19.70;99.90;;;;;;5077826;28;20054;-68
2022/07/05 09:05:42;;;;;;;3.25;1.10;;;20.10;99.90;;;;;;5110760;28;20043;-68
2022/07/05 09:08:10;;;;;;;2.30;1.00;;;20.10;99.90;;;;;;5110800;28;20086;-69
2022/07/05 09:10:37;;;;;;;3.75;1.20;;;20.00;99.90;;;;;;5111048;28;20104;-68
2022/07/05 09:13:03;;;;;;;2.95;1.15;;;19.80;99.90;;;;;;5121130;28;20099;-68
2022/07/05 09:15:29;;;;;;;2.53;0.98;;;19.50;99.90;;;;;;5095124;28;20053;-68
2022/07/05 09:17:55;;;;;;;3.65;1.10;;;19.40;99.90;;;;;;5093402;28;20498;-68
2022/07/05 09:20:21;;;;;;;5.80;1.13;;;19.30;99.90;;;;;;5093687;28;20116;-70
2022/07/05 09:22:52;;;;;;;5.65;1.38;;;19.30;99.90;;;;;;5122007;27;20479;-68
2022/07/05 09:25:27;;;;;;;5.32;1.27;;;19.50;99.90;;;;;;5118467;27;20082;-68
2022/07/05 09:28:06;;;;;;;5.05;1.10;;;19.80;99.90;;;;;;5101302;27;20051;-70
2022/07/05 09:30:41;;;;;;;1.92;0.82;;;20.00;99.90;;;;;;5118505;27;20039;-68
2022/07/05 09:33:25;;;;;;;3.17;1.02;;;20.10;99.90;;;;;;5118602;27;20122;-68
2022/07/05 09:36:01;;;;;;;4.32;1.05;;;19.80;99.90;;;;;;5118018;27;20035;-69
2022/07/05 09:38:28;;;;;;;2.33;0.85;;;19.80;99.90;;;;;;5117948;27;20118;-70
2022/07/05 09:40:55;;;;;;;2.55;1.02;;;19.60;99.90;;;;;;5100993;27;20080;-68
2022/07/05 09:43:26;;;;;;;3.60;1.33;;;19.60;99.90;;;;;;5130680;27;20042;-69
2022/07/05 09:45:53;;;;;;;3.08;1.02;;;20.00;99.90;;;;;;5138270;27;20057;-69
2022/07/05 09:48:19;;;;;;;2.95;1.05;;;20.10;99.90;;;;;;5137753;27;20074;-68
2022/07/05 09:50:45;;;;;;;1.60;0.90;;;20.00;99.90;;;;;;5086966;27;20084;-68
2022/07/05 09:53:13;;;;;;;4.82;1.00;;;19.70;99.90;;;;;;5092553;27;20125;-70
2022/07/05 09:55:40;;;;;;;1.13;0.90;;;19.80;99.90;;;;;;5118400;27;20051;-69
2022/07/05 09:58:07;;;;;;;1.92;0.85;;;19.90;99.90;;;;;;5126961;27;20046;-69
2022/07/05 10:00:32;;;;;;;4.65;1.10;;;20.00;99.90;;;;;;5107557;27;20047;-70
2022/07/05 10:03:00;;;;;;;3.92;1.10;;;20.20;99.90;;;;;;5137074;27;20428;-70
2022/07/05 10:05:30;;;;;;;3.60;1.30;;;20.50;99.90;;;;;;5131595;27;20166;-69
2022/07/05 10:07:58;;;;;;;4.05;0.93;;;20.80;99.90;;;;;;5135163;27;20042;-70
2022/07/05 10:10:28;;;;;;;2.20;0.95;;;20.70;99.40;;;;;;5137870;27;20050;-69
2022/07/05 10:12:56;;;;;;;1.83;1.10;;;20.90;99.90;;;;;;5136537;27;20034;-68
2022/07/05 10:15:25;;;;;;;1.52;0.82;;;21.40;99.70;;;;;;5120629;27;20359;-69
2022/07/05 10:17:59;;;;;;;2.97;0.98;;;21.80;96.10;;;;;;5137255;27;20042;-68
2022/07/05 10:20:45;;;;;;;1.73;0.70;;;21.70;95.50;;;;;;5137102;27;20475;-68
2022/07/05 10:23:16;;;;;;;4.03;0.95;;;21.40;91.20;;;;;;5119950;27;20447;-73
2022/07/05 10:25:49;;;;;;;1.80;0.90;;;21.10;93.00;;;;;;5103216;27;20466;-69
2022/07/05 10:28:19;;;;;;;2.55;1.00;;;20.90;92.60;;;;;;5136553;27;20047;-68
2022/07/05 10:30:49;;;;;;;2.80;1.00;;;21.10;93.00;;;;;;5136772;27;20382;-70
2022/07/05 10:33:20;;;;;;;2.88;0.93;;;21.20;92.80;;;;;;5130305;27;20490;-68
2022/07/05 10:35:46;;;;;;;3.30;1.02;;;21.20;92.30;;;;;;5116009;27;20042;-68
2022/07/05 10:38:13;;;;;;;2.25;0.85;;;21.10;92.50;;;;;;5117130;27;20043;-68
2022/07/05 10:40:42;;;;;;;1.48;0.82;;;20.80;91.80;;;;;;5100568;27;20079;-69
2022/07/05 10:43:10;;;;;;;2.55;0.82;;;20.60;91.30;;;;;;5127179;27;20046;-70
2022/07/05 10:45:39;;;;;;;3.17;1.17;;;20.50;90.30;;;;;;5119283;27;20049;-68
2022/07/05 10:48:26;;;;;;;2.88;0.80;;;20.50;90.20;;;;;;5116464;27;20126;-69
2022/07/05 10:51:03;;;;;;;2.13;0.77;;;20.60;89.30;;;;;;5100357;27;20502;-69
2022/07/05 10:54:07;;;;;;;2.65;1.00;;;20.60;90.20;;;;;;5111934;27;20039;-69
2022/07/05 10:56:33;;;;;;;6.75;1.30;;;20.50;91.10;;;;;;5116808;27;20449;-69
2022/07/05 10:59:12;;;;;;;2.65;1.17;;;20.80;91.60;;;;;;5116400;27;20118;-68
2022/07/05 11:01:41;;;;;;;2.28;1.10;;;21.40;90.50;;;;;;5112084;27;20095;-68
2022/07/05 11:04:15;;;;;;;3.53;0.90;;;21.80;91.20;;;;;;5101608;27;20122;-68
2022/07/05 11:06:46;;;;;;;4.03;1.27;;;21.90;87.10;;;;;;5104461;27;20134;-72
2022/07/05 11:09:11;;;;;;;3.08;1.20;;;21.80;86.30;;;;;;5127904;27;20043;-69
2022/07/05 11:11:42;;;;;;;2.15;0.98;;;21.60;86.90;;;;;;5099823;27;20047;-69
2022/07/05 11:14:20;;;;;;;2.20;1.00;;;21.60;84.90;;;;;;5116345;27;20043;-68
2022/07/05 11:16:47;;;;;;;3.03;1.00;;;21.60;88.10;;;;;;5099133;27;20059;-70
2022/07/05 11:19:16;;;;;;;2.15;0.80;;;21.40;89.20;;;;;;5120706;27;20046;-68
2022/07/05 11:22:01;;;;;;;2.38;0.82;;;21.40;89.20;;;;;;5136217;27;20086;-69
2022/07/05 11:24:29;;;;;;;3.03;0.90;;;21.50;83.80;;;;;;5136407;27;20086;-70
2022/07/05 11:27:00;;;;;;;2.70;0.82;;;21.40;79.00;;;;;;5136454;27;20634;-68
2022/07/05 11:29:43;;;;;;;;;;;21.10;79.40;;;;;;5111934;27;20106;-68
2022/07/05 11:32:11;;;;;;;3.75;1.02;;;21.00;80.50;;;;;;5116127;27;19915;-68
2022/07/05 11:34:48;;;;;;;2.83;0.90;;;20.90;82.60;;;;;;5122446;27;20444;-68
2022/07/05 11:37:14;;;;;;;2.78;0.90;;;21.20;82.70;;;;;;5125374;27;20085;-68
2022/07/05 11:39:45;;;;;;;3.13;0.93;;;21.10;84.30;;;;;;5117363;27;20043;-68
2022/07/05 11:42:19;;;;;;;3.38;1.10;;;21.50;84.70;;;;;;5135914;27;20111;-70
2022/07/05 11:44:50;;;;;;;2.08;0.80;;;21.60;84.70;;;;;;5126039;27;20053;-68
2022/07/05 11:47:20;;;;;;;2.78;0.90;;;21.70;83.70;;;;;;5108694;27;20043;-71
2022/07/05 11:49:56;;;;;;;2.28;1.00;;;21.90;81.20;;;;;;5107910;27;20085;-69
2022/07/05 11:52:30;;;;;;;1.55;0.90;;;22.30;83.40;;;;;;5107525;27;20349;-71
2022/07/05 11:54:57;;;;;;;3.85;1.05;;;22.60;80.20;;;;;;5127980;27;20050;-68
2022/07/05 11:57:23;;;;;;;2.80;0.90;;;22.40;79.80;;;;;;5117121;27;20053;-69
2022/07/05 11:59:49;;;;;;;3.70;0.90;;;22.20;80.00;;;;;;5108412;27;20047;-67
2022/07/05 12:02:16;;;;;;;4.05;1.02;;;22.20;80.40;;;;;;5112339;27;20054;-71
2022/07/05 12:04:48;;;;;;;2.60;1.05;;;22.30;81.10;;;;;;5099910;27;20118;-71
2022/07/05 12:07:31;;;;;;;3.83;0.90;;;22.40;80.40;;;;;;5105984;27;20039;-71
2022/07/05 12:12:43;;;;;;;3.55;0.88;;;22.10;78.50;;;;;;5124666;27;20045;-73
2022/07/05 12:15:17;;;;;;;3.85;1.10;;;21.90;77.40;;;;;;5092533;27;20674;-72
2022/07/05 12:17:48;;;;;;;1.40;0.75;;;21.80;77.20;;;;;;5130859;27;20492;-71
2022/07/05 12:20:21;;;;;;;4.97;0.90;;;22.20;79.40;;;;;;5126296;27;20118;-73
2022/07/05 12:22:46;;;;;;;2.03;1.00;;;22.70;80.70;;;;;;5095169;27;20054;-71
2022/07/05 12:25:16;;;;;;;3.22;0.93;;;23.00;81.30;;;;;;5121589;27;20050;-70
2022/07/05 12:27:44;;;;;;;4.15;1.00;;;22.90;80.90;;;;;;5126644;27;20073;-70
2022/07/05 12:30:11;;;;;;;3.70;1.00;;;22.80;81.30;;;;;;5118018;27;20114;-71
2022/07/05 12:33:09;;;;;;;4.90;1.00;;;22.80;81.30;;;;;;5130964;27;20371;-71
2022/07/05 12:35:36;;;;;;;1.90;1.00;;;23.00;86.00;;;;;;5123567;27;20046;-71
2022/07/05 12:38:08;;;;;;;4.57;1.00;;;22.90;86.80;;;;;;5125385;27;20087;-71
2022/07/05 12:40:35;;;;;;;2.60;1.00;;;22.90;88.70;;;;;;5127313;27;20038;-72
2022/07/05 12:43:13;;;;;;;3.80;0.88;;;22.90;88.80;;;;;;5102630;27;20792;-73
2022/07/05 12:45:41;;;;;;;3.75;1.10;;;23.10;89.00;;;;;;5099413;27;20046;-72
2022/07/05 12:48:08;;;;;;;4.72;0.90;;;23.00;89.90;;;;;;5123023;27;20042;-72
2022/07/05 12:50:52;;;;;;;3.17;1.02;;;23.40;88.60;;;;;;5120566;27;20062;-73
2022/07/05 12:59:17;;;;;;;4.63;1.10;;;22.70;87.70;;;;;;5125375;27;20042;-72
2022/07/05 13:01:44;;;;;;;4.57;1.50;;;22.60;88.20;;;;;;5131577;27;20058;-72
2022/07/05 13:04:15;;;;;;;4.13;1.00;;;22.60;90.10;;;;;;5127680;27;20442;-72